sensor_id;sensor_type;location;lat;lon;timestamp;pressure;altitude;pressure_sealevel;temperature;humidity
38630;BME280;24384;51.988;4.644;2023-01-25T00:01:28;103966.56;;;1.04;79.92
38630;BME280;24384;51.988;4.644;2023-01-25T00:03:53;103953.84;;;0.94;79.07
38630;BME280;24384;51.988;4.644;2023-01-25T00:06:18;103958.94;;;0.93;79.32
38630;BME280;24384;51.988;4.644;2023-01-25T00:08:48;103964.22;;;0.94;80.61
38630;BME280;24384;51.988;4.644;2023-01-25T00:11:13;103958.25;;;0.95;79.58
38630;BME280;24384;51.988;4.644;2023-01-25T00:13:41;103954.34;;;1.03;79.67
38630;BME280;24384;51.988;4.644;2023-01-25T00:16:06;103938.47;;;1.14;80.66
38630;BME280;24384;51.988;4.644;2023-01-25T00:18:31;103944.63;;;0.99;80.48
38630;BME280;24384;51.988;4.644;2023-01-25T00:20:57;103942.44;;;1.07;80.73
38630;BME280;24384;51.988;4.644;2023-01-25T00:23:22;103935.78;;;1.12;80.26
38630;BME280;24384;51.988;4.644;2023-01-25T00:25:47;103936.13;;;1.18;80.47
38630;BME280;24384;51.988;4.644;2023-01-25T00:28:12;103934.16;;;1.14;81.54
38630;BME280;24384;51.988;4.644;2023-01-25T00:30:38;103929.13;;;1.01;79.94
38630;BME280;24384;51.988;4.644;2023-01-25T00:36:45;103924.69;;;1.15;80.67
38630;BME280;24384;51.988;4.644;2023-01-25T00:39:12;103914.28;;;1.15;81.07
38630;BME280;24384;51.988;4.644;2023-01-25T00:41:38;103920.63;;;1.20;80.56
38630;BME280;24384;51.988;4.644;2023-01-25T00:44:03;103912.28;;;1.25;79.84
38630;BME280;24384;51.988;4.644;2023-01-25T00:46:29;103918.56;;;1.14;78.43
38630;BME280;24384;51.988;4.644;2023-01-25T00:48:54;103920.22;;;0.97;78.45
38630;BME280;24384;51.988;4.644;2023-01-25T00:51:21;103910.94;;;0.86;79.07
38630;BME280;24384;51.988;4.644;2023-01-25T00:53:46;103909.47;;;0.91;79.11
38630;BME280;24384;51.988;4.644;2023-01-25T00:56:12;103908.16;;;0.83;79.81
38630;BME280;24384;51.988;4.644;2023-01-25T00:58:37;103915.50;;;0.90;79.73
38630;BME280;24384;51.988;4.644;2023-01-25T01:01:02;103908.50;;;0.89;80.15
38630;BME280;24384;51.988;4.644;2023-01-25T01:03:29;103910.22;;;0.88;78.79
38630;BME280;24384;51.988;4.644;2023-01-25T01:05:59;103918.03;;;0.74;79.25
38630;BME280;24384;51.988;4.644;2023-01-25T01:08:25;103913.72;;;0.74;80.09
38630;BME280;24384;51.988;4.644;2023-01-25T01:10:51;103911.56;;;0.82;80.84
38630;BME280;24384;51.988;4.644;2023-01-25T01:13:16;103899.91;;;0.90;81.79
38630;BME280;24384;51.988;4.644;2023-01-25T01:15:41;103903.56;;;0.94;81.61
38630;BME280;24384;51.988;4.644;2023-01-25T01:18:06;103906.59;;;1.01;82.11
38630;BME280;24384;51.988;4.644;2023-01-25T01:20:32;103897.44;;;1.08;82.18
38630;BME280;24384;51.988;4.644;2023-01-25T01:22:57;103912.84;;;1.05;82.97
38630;BME280;24384;51.988;4.644;2023-01-25T01:25:22;103899.16;;;1.07;82.69
38630;BME280;24384;51.988;4.644;2023-01-25T01:27:47;103901.13;;;1.12;82.15
38630;BME280;24384;51.988;4.644;2023-01-25T01:30:13;103902.25;;;1.17;81.13
38630;BME280;24384;51.988;4.644;2023-01-25T01:32:38;103912.47;;;1.14;81.40
38630;BME280;24384;51.988;4.644;2023-01-25T01:35:05;103906.25;;;0.95;81.24
38630;BME280;24384;51.988;4.644;2023-01-25T01:37:30;103904.03;;;0.86;80.30
38630;BME280;24384;51.988;4.644;2023-01-25T01:39:55;103903.84;;;0.83;80.72
38630;BME280;24384;51.988;4.644;2023-01-25T01:42:22;103904.13;;;0.88;78.62
38630;BME280;24384;51.988;4.644;2023-01-25T01:44:50;103900.13;;;0.78;79.17
38630;BME280;24384;51.988;4.644;2023-01-25T01:47:20;103900.47;;;0.69;79.34
38630;BME280;24384;51.988;4.644;2023-01-25T01:49:54;103901.66;;;0.75;79.24
38630;BME280;24384;51.988;4.644;2023-01-25T01:52:25;103902.81;;;0.80;78.48
38630;BME280;24384;51.988;4.644;2023-01-25T01:54:57;103906.19;;;0.79;79.20
38630;BME280;24384;51.988;4.644;2023-01-25T01:57:38;103902.00;;;0.81;79.04
38630;BME280;24384;51.988;4.644;2023-01-25T02:00:10;103910.50;;;0.93;78.75
38630;BME280;24384;51.988;4.644;2023-01-25T02:02:36;103902.19;;;0.84;78.58
38630;BME280;24384;51.988;4.644;2023-01-25T02:05:04;103906.84;;;0.75;78.37
38630;BME280;24384;51.988;4.644;2023-01-25T02:07:36;103904.47;;;0.94;77.60
38630;BME280;24384;51.988;4.644;2023-01-25T02:10:07;103902.19;;;0.69;78.78
38630;BME280;24384;51.988;4.644;2023-01-25T02:12:34;103897.53;;;0.63;78.93
38630;BME280;24384;51.988;4.644;2023-01-25T02:15:00;103896.03;;;0.67;79.32
38630;BME280;24384;51.988;4.644;2023-01-25T02:17:28;103903.66;;;0.64;78.89
38630;BME280;24384;51.988;4.644;2023-01-25T02:20:10;103893.97;;;0.61;79.01
38630;BME280;24384;51.988;4.644;2023-01-25T02:22:58;103892.69;;;0.69;79.48
38630;BME280;24384;51.988;4.644;2023-01-25T02:25:25;103892.50;;;0.66;79.29
38630;BME280;24384;51.988;4.644;2023-01-25T02:27:54;103888.56;;;0.73;78.66
38630;BME280;24384;51.988;4.644;2023-01-25T02:30:22;103885.75;;;0.85;79.70
38630;BME280;24384;51.988;4.644;2023-01-25T02:32:47;103881.72;;;0.90;80.94
38630;BME280;24384;51.988;4.644;2023-01-25T02:35:34;103878.81;;;1.00;81.76
38630;BME280;24384;51.988;4.644;2023-01-25T02:38:00;103871.50;;;0.93;80.83
38630;BME280;24384;51.988;4.644;2023-01-25T02:40:26;103871.75;;;0.98;79.60
38630;BME280;24384;51.988;4.644;2023-01-25T02:42:52;103872.06;;;0.87;80.03
38630;BME280;24384;51.988;4.644;2023-01-25T02:45:21;103867.09;;;0.92;81.06
38630;BME280;24384;51.988;4.644;2023-01-25T02:47:49;103867.06;;;0.76;79.91
38630;BME280;24384;51.988;4.644;2023-01-25T02:50:15;103861.84;;;0.76;80.47
38630;BME280;24384;51.988;4.644;2023-01-25T02:52:40;103857.94;;;0.99;79.89
38630;BME280;24384;51.988;4.644;2023-01-25T02:55:06;103870.59;;;0.93;80.16
38630;BME280;24384;51.988;4.644;2023-01-25T02:57:32;103867.53;;;1.00;80.57
38630;BME280;24384;51.988;4.644;2023-01-25T02:59:57;103856.09;;;0.96;80.53
38630;BME280;24384;51.988;4.644;2023-01-25T03:02:22;103856.88;;;0.95;80.96
38630;BME280;24384;51.988;4.644;2023-01-25T03:04:47;103854.03;;;0.91;81.11
38630;BME280;24384;51.988;4.644;2023-01-25T03:07:14;103854.19;;;0.94;81.80
38630;BME280;24384;51.988;4.644;2023-01-25T03:09:39;103850.13;;;0.99;81.17
38630;BME280;24384;51.988;4.644;2023-01-25T03:12:04;103854.13;;;0.92;81.54
38630;BME280;24384;51.988;4.644;2023-01-25T03:14:30;103851.59;;;0.94;82.22
38630;BME280;24384;51.988;4.644;2023-01-25T03:16:55;103849.47;;;0.86;80.35
38630;BME280;24384;51.988;4.644;2023-01-25T03:19:20;103838.44;;;0.59;78.90
38630;BME280;24384;51.988;4.644;2023-01-25T03:21:45;103839.31;;;0.60;80.12
38630;BME280;24384;51.988;4.644;2023-01-25T03:24:11;103833.59;;;0.65;80.49
38630;BME280;24384;51.988;4.644;2023-01-25T03:26:36;103837.25;;;0.69;80.26
38630;BME280;24384;51.988;4.644;2023-01-25T03:29:21;103837.06;;;0.66;78.70
38630;BME280;24384;51.988;4.644;2023-01-25T03:31:46;103831.69;;;0.78;78.96
38630;BME280;24384;51.988;4.644;2023-01-25T03:34:12;103827.66;;;0.68;78.68
38630;BME280;24384;51.988;4.644;2023-01-25T03:36:37;103823.75;;;0.60;79.19
38630;BME280;24384;51.988;4.644;2023-01-25T03:39:02;103818.53;;;0.60;80.63
38630;BME280;24384;51.988;4.644;2023-01-25T03:41:28;103816.56;;;0.56;81.83
38630;BME280;24384;51.988;4.644;2023-01-25T03:43:53;103820.38;;;0.46;80.88
38630;BME280;24384;51.988;4.644;2023-01-25T03:46:18;103819.31;;;0.42;80.42
38630;BME280;24384;51.988;4.644;2023-01-25T03:48:43;103812.94;;;0.37;80.25
38630;BME280;24384;51.988;4.644;2023-01-25T03:51:09;103821.69;;;0.54;79.20
38630;BME280;24384;51.988;4.644;2023-01-25T03:53:34;103816.88;;;0.45;78.54
38630;BME280;24384;51.988;4.644;2023-01-25T03:56:07;103816.28;;;0.05;79.69
38630;BME280;24384;51.988;4.644;2023-01-25T03:58:34;103818.72;;;0.16;79.00
38630;BME280;24384;51.988;4.644;2023-01-25T04:01:00;103822.00;;;0.14;79.48
38630;BME280;24384;51.988;4.644;2023-01-25T04:03:26;103817.00;;;0.17;79.55
38630;BME280;24384;51.988;4.644;2023-01-25T04:05:53;103816.63;;;0.26;79.27
38630;BME280;24384;51.988;4.644;2023-01-25T04:08:23;103813.69;;;0.20;79.33
38630;BME280;24384;51.988;4.644;2023-01-25T04:11:00;103812.81;;;0.04;79.42
38630;BME280;24384;51.988;4.644;2023-01-25T04:13:28;103811.19;;;-0.09;79.83
38630;BME280;24384;51.988;4.644;2023-01-25T04:15:54;103813.00;;;-0.08;79.06
38630;BME280;24384;51.988;4.644;2023-01-25T04:18:20;103812.91;;;-0.24;80.77
38630;BME280;24384;51.988;4.644;2023-01-25T04:20:51;103812.16;;;-0.37;81.37
38630;BME280;24384;51.988;4.644;2023-01-25T04:23:16;103815.81;;;-0.48;81.53
38630;BME280;24384;51.988;4.644;2023-01-25T04:25:42;103804.19;;;-0.40;81.57
38630;BME280;24384;51.988;4.644;2023-01-25T04:28:07;103803.41;;;-0.39;81.42
38630;BME280;24384;51.988;4.644;2023-01-25T04:30:32;103805.19;;;-0.38;81.34
38630;BME280;24384;51.988;4.644;2023-01-25T04:33:02;103811.09;;;-0.25;80.69
38630;BME280;24384;51.988;4.644;2023-01-25T04:35:28;103808.03;;;-0.48;82.09
38630;BME280;24384;51.988;4.644;2023-01-25T04:37:55;103801.66;;;-0.53;82.15
38630;BME280;24384;51.988;4.644;2023-01-25T04:40:20;103801.56;;;-0.55;82.29
38630;BME280;24384;51.988;4.644;2023-01-25T04:42:45;103797.78;;;-0.75;82.96
38630;BME280;24384;51.988;4.644;2023-01-25T04:45:11;103788.34;;;-0.59;82.46
38630;BME280;24384;51.988;4.644;2023-01-25T04:47:36;103788.88;;;-0.50;82.43
38630;BME280;24384;51.988;4.644;2023-01-25T04:50:01;103794.81;;;-0.52;81.91
38630;BME280;24384;51.988;4.644;2023-01-25T04:52:27;103784.63;;;-0.49;81.89
38630;BME280;24384;51.988;4.644;2023-01-25T04:54:52;103788.25;;;-0.61;82.12
38630;BME280;24384;51.988;4.644;2023-01-25T04:57:18;103784.06;;;-0.59;82.27
38630;BME280;24384;51.988;4.644;2023-01-25T04:59:44;103777.53;;;-0.52;81.77
38630;BME280;24384;51.988;4.644;2023-01-25T05:02:09;103784.94;;;-0.58;81.78
38630;BME280;24384;51.988;4.644;2023-01-25T05:04:34;103782.06;;;-0.63;81.41
38630;BME280;24384;51.988;4.644;2023-01-25T05:06:59;103785.66;;;-0.61;81.42
38630;BME280;24384;51.988;4.644;2023-01-25T05:09:25;103777.16;;;-0.58;81.90
38630;BME280;24384;51.988;4.644;2023-01-25T05:11:50;103774.25;;;-0.49;81.85
38630;BME280;24384;51.988;4.644;2023-01-25T05:14:15;103767.81;;;-0.41;81.01
38630;BME280;24384;51.988;4.644;2023-01-25T05:16:40;103771.19;;;-0.42;81.34
38630;BME280;24384;51.988;4.644;2023-01-25T05:19:08;103773.34;;;-0.35;81.22
38630;BME280;24384;51.988;4.644;2023-01-25T05:21:33;103776.47;;;-0.41;81.37
38630;BME280;24384;51.988;4.644;2023-01-25T05:24:19;103772.25;;;-0.53;81.28
38630;BME280;24384;51.988;4.644;2023-01-25T05:26:45;103780.09;;;-0.67;81.52
38630;BME280;24384;51.988;4.644;2023-01-25T05:29:29;103773.47;;;-0.77;81.91
38630;BME280;24384;51.988;4.644;2023-01-25T05:31:56;103771.72;;;-0.63;81.50
38630;BME280;24384;51.988;4.644;2023-01-25T05:34:21;103773.78;;;-0.42;80.80
38630;BME280;24384;51.988;4.644;2023-01-25T05:36:47;103775.41;;;-0.44;81.05
38630;BME280;24384;51.988;4.644;2023-01-25T05:39:12;103760.47;;;-0.48;81.07
38630;BME280;24384;51.988;4.644;2023-01-25T05:41:37;103766.00;;;-0.42;80.99
38630;BME280;24384;51.988;4.644;2023-01-25T05:44:03;103771.75;;;-0.48;80.67
38630;BME280;24384;51.988;4.644;2023-01-25T05:46:28;103763.97;;;-0.48;80.70
38630;BME280;24384;51.988;4.644;2023-01-25T05:48:53;103763.78;;;-0.36;81.03
38630;BME280;24384;51.988;4.644;2023-01-25T05:51:19;103760.22;;;-0.38;80.11
38630;BME280;24384;51.988;4.644;2023-01-25T05:53:44;103763.22;;;-0.45;80.56
38630;BME280;24384;51.988;4.644;2023-01-25T05:56:10;103762.72;;;-0.40;80.34
38630;BME280;24384;51.988;4.644;2023-01-25T05:58:36;103767.09;;;-0.39;80.99
38630;BME280;24384;51.988;4.644;2023-01-25T06:01:03;103768.34;;;-0.32;81.10
38630;BME280;24384;51.988;4.644;2023-01-25T06:03:28;103761.63;;;-0.28;80.15
38630;BME280;24384;51.988;4.644;2023-01-25T06:05:58;103765.94;;;-0.14;79.39
38630;BME280;24384;51.988;4.644;2023-01-25T06:08:26;103770.88;;;-0.19;79.48
38630;BME280;24384;51.988;4.644;2023-01-25T06:10:51;103763.34;;;-0.29;79.92
38630;BME280;24384;51.988;4.644;2023-01-25T06:13:16;103771.31;;;-0.26;79.58
38630;BME280;24384;51.988;4.644;2023-01-25T06:15:42;103769.50;;;-0.27;80.07
38630;BME280;24384;51.988;4.644;2023-01-25T06:18:07;103762.88;;;-0.37;80.29
38630;BME280;24384;51.988;4.644;2023-01-25T06:20:35;103770.66;;;-0.51;80.76
38630;BME280;24384;51.988;4.644;2023-01-25T06:23:00;103768.97;;;-0.36;80.43
38630;BME280;24384;51.988;4.644;2023-01-25T06:25:25;103762.78;;;-0.38;80.54
38630;BME280;24384;51.988;4.644;2023-01-25T06:27:53;103771.63;;;-0.34;80.76
38630;BME280;24384;51.988;4.644;2023-01-25T06:30:19;103771.38;;;-0.24;80.65
38630;BME280;24384;51.988;4.644;2023-01-25T06:32:44;103766.38;;;-0.21;80.61
38630;BME280;24384;51.988;4.644;2023-01-25T06:35:09;103763.53;;;-0.11;80.53
38630;BME280;24384;51.988;4.644;2023-01-25T06:37:34;103762.97;;;-0.05;80.18
38630;BME280;24384;51.988;4.644;2023-01-25T06:40:00;103749.91;;;-0.07;80.06
38630;BME280;24384;51.988;4.644;2023-01-25T06:42:25;103759.31;;;-0.09;80.00
38630;BME280;24384;51.988;4.644;2023-01-25T06:44:50;103759.50;;;-0.06;80.30
38630;BME280;24384;51.988;4.644;2023-01-25T06:47:15;103759.03;;;-0.13;80.36
38630;BME280;24384;51.988;4.644;2023-01-25T06:49:41;103756.53;;;-0.12;79.61
38630;BME280;24384;51.988;4.644;2023-01-25T06:52:06;103761.00;;;-0.24;80.54
38630;BME280;24384;51.988;4.644;2023-01-25T06:54:32;103755.75;;;-0.26;80.82
38630;BME280;24384;51.988;4.644;2023-01-25T06:56:57;103752.63;;;-0.20;80.33
38630;BME280;24384;51.988;4.644;2023-01-25T06:59:22;103758.44;;;-0.09;80.26
38630;BME280;24384;51.988;4.644;2023-01-25T07:01:48;103757.97;;;-0.17;80.40
38630;BME280;24384;51.988;4.644;2023-01-25T07:04:14;103756.34;;;-0.30;80.51
38630;BME280;24384;51.988;4.644;2023-01-25T07:06:39;103759.41;;;-0.22;80.39
38630;BME280;24384;51.988;4.644;2023-01-25T07:09:09;103747.59;;;-0.17;80.56
38630;BME280;24384;51.988;4.644;2023-01-25T07:11:35;103745.81;;;-0.18;80.44
38630;BME280;24384;51.988;4.644;2023-01-25T07:14:01;103745.72;;;-0.34;80.85
38630;BME280;24384;51.988;4.644;2023-01-25T07:16:26;103750.19;;;-0.32;80.85
38630;BME280;24384;51.988;4.644;2023-01-25T07:18:53;103757.09;;;-0.32;80.75
38630;BME280;24384;51.988;4.644;2023-01-25T07:21:20;103757.53;;;-0.40;80.87
38630;BME280;24384;51.988;4.644;2023-01-25T07:23:49;103755.03;;;-0.23;81.37
38630;BME280;24384;51.988;4.644;2023-01-25T07:26:18;103757.63;;;-0.23;80.65
38630;BME280;24384;51.988;4.644;2023-01-25T07:28:44;103753.84;;;-0.28;80.54
38630;BME280;24384;51.988;4.644;2023-01-25T07:31:10;103751.78;;;-0.49;80.23
38630;BME280;24384;51.988;4.644;2023-01-25T07:33:36;103752.75;;;-0.47;80.83
38630;BME280;24384;51.988;4.644;2023-01-25T07:36:03;103742.66;;;-0.42;80.74
38630;BME280;24384;51.988;4.644;2023-01-25T07:38:29;103739.63;;;-0.35;81.08
38630;BME280;24384;51.988;4.644;2023-01-25T07:40:54;103732.84;;;-0.48;81.27
38630;BME280;24384;51.988;4.644;2023-01-25T07:43:19;103728.28;;;-0.37;81.21
38630;BME280;24384;51.988;4.644;2023-01-25T07:45:45;103723.91;;;-0.23;80.37
38630;BME280;24384;51.988;4.644;2023-01-25T07:48:13;103723.06;;;-0.22;80.87
38630;BME280;24384;51.988;4.644;2023-01-25T07:50:39;103714.94;;;-0.28;80.67
38630;BME280;24384;51.988;4.644;2023-01-25T07:53:05;103713.69;;;-0.50;82.08
38630;BME280;24384;51.988;4.644;2023-01-25T07:55:31;103712.63;;;-0.39;81.28
38630;BME280;24384;51.988;4.644;2023-01-25T07:57:56;103716.47;;;-0.32;81.17
38630;BME280;24384;51.988;4.644;2023-01-25T08:00:21;103709.13;;;-0.24;81.27
38630;BME280;24384;51.988;4.644;2023-01-25T08:02:50;103709.66;;;-0.15;81.16
38630;BME280;24384;51.988;4.644;2023-01-25T08:05:15;103708.59;;;-0.19;81.32
38630;BME280;24384;51.988;4.644;2023-01-25T08:07:41;103712.16;;;-0.16;82.18
38630;BME280;24384;51.988;4.644;2023-01-25T08:10:06;103707.16;;;-0.13;81.73
38630;BME280;24384;51.988;4.644;2023-01-25T08:12:33;103708.38;;;-0.07;81.68
38630;BME280;24384;51.988;4.644;2023-01-25T08:14:59;103709.09;;;0.06;81.24
38630;BME280;24384;51.988;4.644;2023-01-25T08:17:24;103715.06;;;0.05;81.66
38630;BME280;24384;51.988;4.644;2023-01-25T08:19:56;103711.50;;;0.03;81.24
38630;BME280;24384;51.988;4.644;2023-01-25T08:22:21;103716.25;;;0.10;81.06
38630;BME280;24384;51.988;4.644;2023-01-25T08:24:46;103716.97;;;0.07;80.25
38630;BME280;24384;51.988;4.644;2023-01-25T08:27:11;103717.84;;;0.08;80.04
38630;BME280;24384;51.988;4.644;2023-01-25T08:29:36;103714.53;;;0.10;80.19
38630;BME280;24384;51.988;4.644;2023-01-25T08:32:02;103718.50;;;0.04;79.76
38630;BME280;24384;51.988;4.644;2023-01-25T08:34:30;103712.03;;;0.12;80.21
38630;BME280;24384;51.988;4.644;2023-01-25T08:36:56;103707.63;;;0.11;80.09
38630;BME280;24384;51.988;4.644;2023-01-25T08:39:21;103721.88;;;0.17;79.52
38630;BME280;24384;51.988;4.644;2023-01-25T08:41:46;103717.94;;;0.09;80.51
38630;BME280;24384;51.988;4.644;2023-01-25T08:44:12;103711.81;;;-0.08;80.45
38630;BME280;24384;51.988;4.644;2023-01-25T08:46:37;103706.22;;;0.01;80.70
38630;BME280;24384;51.988;4.644;2023-01-25T08:49:03;103701.59;;;-0.05;80.81
38630;BME280;24384;51.988;4.644;2023-01-25T08:51:30;103698.72;;;0.06;80.65
38630;BME280;24384;51.988;4.644;2023-01-25T08:53:55;103704.16;;;0.10;80.81
38630;BME280;24384;51.988;4.644;2023-01-25T08:56:21;103702.75;;;0.01;80.84
38630;BME280;24384;51.988;4.644;2023-01-25T08:58:47;103699.94;;;0.12;80.64
38630;BME280;24384;51.988;4.644;2023-01-25T09:01:15;103698.00;;;0.08;80.09
38630;BME280;24384;51.988;4.644;2023-01-25T09:03:43;103700.34;;;-0.11;80.42
38630;BME280;24384;51.988;4.644;2023-01-25T09:06:09;103696.44;;;-0.20;81.11
38630;BME280;24384;51.988;4.644;2023-01-25T09:08:35;103698.31;;;-0.17;81.07
38630;BME280;24384;51.988;4.644;2023-01-25T09:11:04;103688.28;;;-0.26;81.06
38630;BME280;24384;51.988;4.644;2023-01-25T09:13:30;103693.94;;;-0.18;81.68
38630;BME280;24384;51.988;4.644;2023-01-25T09:16:03;103683.63;;;-0.16;81.10
38630;BME280;24384;51.988;4.644;2023-01-25T09:18:29;103684.88;;;-0.10;81.30
38630;BME280;24384;51.988;4.644;2023-01-25T09:20:55;103694.97;;;-0.14;80.17
38630;BME280;24384;51.988;4.644;2023-01-25T09:23:21;103688.03;;;-0.15;80.02
38630;BME280;24384;51.988;4.644;2023-01-25T09:25:48;103683.72;;;-0.15;80.28
38630;BME280;24384;51.988;4.644;2023-01-25T09:28:19;103689.44;;;-0.21;80.69
38630;BME280;24384;51.988;4.644;2023-01-25T09:30:45;103688.38;;;-0.09;80.85
38630;BME280;24384;51.988;4.644;2023-01-25T09:33:10;103689.59;;;-0.03;80.27
38630;BME280;24384;51.988;4.644;2023-01-25T09:35:46;103688.38;;;-0.09;80.23
38630;BME280;24384;51.988;4.644;2023-01-25T09:38:11;103681.34;;;0.05;80.03
38630;BME280;24384;51.988;4.644;2023-01-25T09:40:37;103671.00;;;-0.10;80.14
38630;BME280;24384;51.988;4.644;2023-01-25T09:52:36;103664.16;;;-0.40;81.67
38630;BME280;24384;51.988;4.644;2023-01-25T09:54:51;103661.22;;;-0.46;81.48
38630;BME280;24384;51.988;4.644;2023-01-25T09:57:21;103664.78;;;-0.44;81.50
38630;BME280;24384;51.988;4.644;2023-01-25T09:59:50;103666.31;;;-0.32;81.51
38630;BME280;24384;51.988;4.644;2023-01-25T10:02:26;103655.94;;;-0.32;81.73
38630;BME280;24384;51.988;4.644;2023-01-25T10:05:00;103653.03;;;-0.22;81.63
38630;BME280;24384;51.988;4.644;2023-01-25T10:10:15;103634.78;;;-0.24;81.16
38630;BME280;24384;51.988;4.644;2023-01-25T10:12:41;103640.03;;;-0.07;81.05
38630;BME280;24384;51.988;4.644;2023-01-25T10:15:18;103619.84;;;-0.13;80.88
38630;BME280;24384;51.988;4.644;2023-01-25T10:17:44;103629.25;;;0.02;80.58
38630;BME280;24384;51.988;4.644;2023-01-25T10:25:49;103604.72;;;0.11;79.59
38630;BME280;24384;51.988;4.644;2023-01-25T10:31:15;103607.75;;;0.19;79.15
38630;BME280;24384;51.988;4.644;2023-01-25T10:33:43;103608.53;;;0.18;79.73
38630;BME280;24384;51.988;4.644;2023-01-25T10:36:16;103606.84;;;0.35;79.62
38630;BME280;24384;51.988;4.644;2023-01-25T10:38:47;103597.69;;;0.25;79.05
38630;BME280;24384;51.988;4.644;2023-01-25T10:41:29;103603.19;;;0.15;79.79
38630;BME280;24384;51.988;4.644;2023-01-25T10:43:58;103596.31;;;-0.16;80.57
38630;BME280;24384;51.988;4.644;2023-01-25T10:46:48;103600.00;;;-0.12;80.82
38630;BME280;24384;51.988;4.644;2023-01-25T10:51:45;103585.81;;;-0.03;80.61
38630;BME280;24384;51.988;4.644;2023-01-25T10:54:13;103581.50;;;-0.19;80.96
38630;BME280;24384;51.988;4.644;2023-01-25T10:56:40;103579.81;;;-0.02;80.77
38630;BME280;24384;51.988;4.644;2023-01-25T10:59:24;103565.72;;;0.10;80.32
38630;BME280;24384;51.988;4.644;2023-01-25T11:01:51;103560.28;;;0.22;79.91
38630;BME280;24384;51.988;4.644;2023-01-25T11:04:29;103546.50;;;0.23;79.74
38630;BME280;24384;51.988;4.644;2023-01-25T11:06:55;103549.16;;;0.24;79.96
38630;BME280;24384;51.988;4.644;2023-01-25T11:11:53;103539.47;;;-0.28;81.79
38630;BME280;24384;51.988;4.644;2023-01-25T11:14:22;103536.06;;;-0.27;81.51
38630;BME280;24384;51.988;4.644;2023-01-25T11:16:48;103535.34;;;-0.24;81.32
38630;BME280;24384;51.988;4.644;2023-01-25T11:19:36;103519.50;;;-0.14;82.08
38630;BME280;24384;51.988;4.644;2023-01-25T11:22:04;103525.97;;;-0.06;81.67
38630;BME280;24384;51.988;4.644;2023-01-25T11:24:34;103519.63;;;0.06;81.25
38630;BME280;24384;51.988;4.644;2023-01-25T11:27:26;103517.09;;;-0.26;81.64
38630;BME280;24384;51.988;4.644;2023-01-25T11:32:30;103502.09;;;-0.31;82.71
38630;BME280;24384;51.988;4.644;2023-01-25T11:34:56;103488.72;;;-0.39;83.46
38630;BME280;24384;51.988;4.644;2023-01-25T11:46:22;103461.25;;;-0.35;83.64
38630;BME280;24384;51.988;4.644;2023-01-25T11:49:22;103450.56;;;-0.42;82.80
38630;BME280;24384;51.988;4.644;2023-01-25T11:52:07;103446.88;;;-0.62;83.96
38630;BME280;24384;51.988;4.644;2023-01-25T11:54:51;103440.56;;;-0.50;83.96
38630;BME280;24384;51.988;4.644;2023-01-25T12:06:14;103408.56;;;-0.51;82.85
38630;BME280;24384;51.988;4.644;2023-01-25T12:11:43;103400.28;;;-0.44;83.46
38630;BME280;24384;51.988;4.644;2023-01-25T12:25:18;103364.19;;;-0.57;83.25
38630;BME280;24384;51.988;4.644;2023-01-25T12:28:12;103359.97;;;-0.55;83.51
38630;BME280;24384;51.988;4.644;2023-01-25T12:30:57;103360.13;;;-0.52;82.66
38630;BME280;24384;51.988;4.644;2023-01-25T12:36:17;103335.81;;;-0.54;83.95
38630;BME280;24384;51.988;4.644;2023-01-25T12:41:23;103328.13;;;-0.69;83.50
38630;BME280;24384;51.988;4.644;2023-01-25T12:43:59;103319.78;;;-0.63;83.96
38630;BME280;24384;51.988;4.644;2023-01-25T12:46:36;103317.81;;;-0.67;84.16
38630;BME280;24384;51.988;4.644;2023-01-25T12:49:07;103320.81;;;-0.60;83.59
38630;BME280;24384;51.988;4.644;2023-01-25T12:51:39;103323.00;;;-0.67;84.17
38630;BME280;24384;51.988;4.644;2023-01-25T12:54:16;103307.53;;;-0.66;84.70
38630;BME280;24384;51.988;4.644;2023-01-25T12:56:59;103305.19;;;-0.61;84.22
38630;BME280;24384;51.988;4.644;2023-01-25T12:59:38;103304.88;;;-0.67;84.11
38630;BME280;24384;51.988;4.644;2023-01-25T13:02:18;103308.59;;;-0.79;84.00
38630;BME280;24384;51.988;4.644;2023-01-25T13:05:05;103299.91;;;-0.79;84.52
38630;BME280;24384;51.988;4.644;2023-01-25T13:10:30;103302.50;;;-0.79;84.92
38630;BME280;24384;51.988;4.644;2023-01-25T13:13:02;103288.66;;;-0.80;84.62
38630;BME280;24384;51.988;4.644;2023-01-25T13:15:43;103290.13;;;-0.85;84.49
38630;BME280;24384;51.988;4.644;2023-01-25T13:20:54;103285.25;;;-0.62;84.35
38630;BME280;24384;51.988;4.644;2023-01-25T13:28:48;103279.28;;;-0.61;84.21
38630;BME280;24384;51.988;4.644;2023-01-25T13:34:12;103270.53;;;-0.80;84.49
38630;BME280;24384;51.988;4.644;2023-01-25T13:44:24;103241.72;;;-0.86;84.94
38630;BME280;24384;51.988;4.644;2023-01-25T13:46:59;103239.13;;;-0.86;84.64
38630;BME280;24384;51.988;4.644;2023-01-25T13:49:56;103243.91;;;-0.77;83.88
38630;BME280;24384;51.988;4.644;2023-01-25T13:52:25;103240.38;;;-0.61;83.28
38630;BME280;24384;51.988;4.644;2023-01-25T13:54:54;103248.09;;;-0.63;83.67
38630;BME280;24384;51.988;4.644;2023-01-25T13:57:25;103246.28;;;-0.64;83.28
38630;BME280;24384;51.988;4.644;2023-01-25T14:00:04;103247.44;;;-0.75;83.13
38630;BME280;24384;51.988;4.644;2023-01-25T14:02:31;103240.81;;;-0.86;83.45
38630;BME280;24384;51.988;4.644;2023-01-25T14:04:59;103231.09;;;-0.74;83.80
38630;BME280;24384;51.988;4.644;2023-01-25T14:07:30;103235.13;;;-0.63;83.74
38630;BME280;24384;51.988;4.644;2023-01-25T14:10:06;103226.16;;;-0.69;83.60
38630;BME280;24384;51.988;4.644;2023-01-25T14:12:38;103241.53;;;-0.73;84.03
38630;BME280;24384;51.988;4.644;2023-01-25T14:17:42;103234.00;;;-0.84;85.06
38630;BME280;24384;51.988;4.644;2023-01-25T14:20:20;103229.16;;;-0.78;84.80
38630;BME280;24384;51.988;4.644;2023-01-25T14:22:50;103228.19;;;-0.80;84.11
38630;BME280;24384;51.988;4.644;2023-01-25T14:25:16;103223.88;;;-0.80;84.77
38630;BME280;24384;51.988;4.644;2023-01-25T14:30:32;103221.06;;;-0.84;84.24
38630;BME280;24384;51.988;4.644;2023-01-25T14:32:59;103218.88;;;-0.77;85.08
38630;BME280;24384;51.988;4.644;2023-01-25T14:37:51;103227.91;;;-0.68;84.30
38630;BME280;24384;51.988;4.644;2023-01-25T14:40:19;103222.66;;;-0.70;83.76